LFLW

Details ICAO LFLW (AUR)
Name Aurillac
Region France
Timezone Europe/Paris (UTC+1.0)
Plans Departing 8
Arriving 13
Stats Elevation 2,096 ft / 639 m (AMSL)
Location 44.891416° 2.422195°
Runways 1
Magnetic Variation 0.811° E
Sunrise 2017-12-14 07:21:58 UTC / 2017-12-14 08:21:58 Local
Sunset 2017-12-14 16:10:48 UTC / 2017-12-14 17:10:48 Local
Advertisement - Login to hide

Runways

ID Width Length Bearing (true) Bearing (mag) Surface Threshold Offset Overrun Length
15 98 ft / 30 m 5,430 ft / 1,655 m 150.01° 149.20° Asphalt 0 ft / 0 m 0 ft / 0 m
33 98 ft / 30 m 5,430 ft / 1,655 m 330.01° 329.20° Asphalt 0 ft / 0 m 0 ft / 0 m

Approach Navaids

Runway Type Ident Frequency Range Bearing (true) Bearing (mag) Slope Elevation
15 Localiser AR 110.30 MHz 18 nm / 33 km 150.87° 150.06° - 2,057 ft / 627 m (AMSL)
15 Glidescope AR 110.30 MHz 10 nm / 19 km 150.01° 149.20° 3.00° 2,106 ft / 642 m (AMSL)

Map

Weather


0- 5 10 15 20 25 30 35+ Temperature / ° C

Clouds and Precipitation
Forecast for 2017-12-14 18:00 UTC. Updated 2 hours ago

Ground ~20,000 ft ~40,000 ft Winds

METAR

LFLW 141900Z AUTO 25010KT 9999 BKN017/// BKN022/// BKN037/// ///TCU 06/05 Q1006

TAF

Not found

Frequencies

Tower 118.32 MHz INFO
Warning: Do not use this data for real-world aviation or navigation. No guarantee of current accuracy is given.